sensor_id;sensor_type;location;lat;lon;timestamp;pressure;altitude;pressure_sealevel;temperature;humidity
50590;BME280;36547;50.514;30.840;2023-05-11T00:00:31;100940.22;;;6.25;58.13
50590;BME280;36547;50.514;30.840;2023-05-11T00:01:33;100941.11;;;6.24;58.22
50590;BME280;36547;50.514;30.840;2023-05-11T00:02:37;100939.38;;;6.23;58.29
50590;BME280;36547;50.514;30.840;2023-05-11T00:03:39;100940.30;;;6.21;58.23
50590;BME280;36547;50.514;30.840;2023-05-11T00:04:42;100935.98;;;6.18;58.43
50590;BME280;36547;50.514;30.840;2023-05-11T00:05:47;100939.47;;;6.20;58.36
50590;BME280;36547;50.514;30.840;2023-05-11T00:06:49;100940.39;;;6.18;58.46
50590;BME280;36547;50.514;30.840;2023-05-11T00:07:51;100939.58;;;6.14;58.21
50590;BME280;36547;50.514;30.840;2023-05-11T00:08:54;100940.48;;;6.13;57.84
50590;BME280;36547;50.514;30.840;2023-05-11T00:09:57;100935.20;;;6.13;57.32
50590;BME280;36547;50.514;30.840;2023-05-11T00:10:59;100939.58;;;6.14;57.41
50590;BME280;36547;50.514;30.840;2023-05-11T00:12:01;100940.48;;;6.13;57.31
50590;BME280;36547;50.514;30.840;2023-05-11T00:13:04;100936.94;;;6.14;57.57
50590;BME280;36547;50.514;30.840;2023-05-11T00:14:06;100940.51;;;6.12;57.85
50590;BME280;36547;50.514;30.840;2023-05-11T00:15:09;100928.19;;;6.12;57.95
50590;BME280;36547;50.514;30.840;2023-05-11T00:16:11;100936.10;;;6.12;58.19
50590;BME280;36547;50.514;30.840;2023-05-11T00:17:13;100945.73;;;6.15;58.09
50590;BME280;36547;50.514;30.840;2023-05-11T00:18:15;100935.26;;;6.10;58.16
50590;BME280;36547;50.514;30.840;2023-05-11T00:19:18;100941.44;;;6.09;58.25
50590;BME280;36547;50.514;30.840;2023-05-11T00:20:20;100934.36;;;6.11;58.38
50590;BME280;36547;50.514;30.840;2023-05-11T00:21:22;100939.70;;;6.08;58.37
50590;BME280;36547;50.514;30.840;2023-05-11T00:22:25;100936.30;;;6.03;58.43
50590;BME280;36547;50.514;30.840;2023-05-11T00:23:27;100940.59;;;6.07;58.41
50590;BME280;36547;50.514;30.840;2023-05-11T00:24:29;100941.49;;;6.06;58.46
50590;BME280;36547;50.514;30.840;2023-05-11T00:25:31;100937.09;;;6.07;58.45
50590;BME280;36547;50.514;30.840;2023-05-11T00:26:33;100940.66;;;6.06;58.48
50590;BME280;36547;50.514;30.840;2023-05-11T00:27:36;100938.02;;;6.06;58.50
50590;BME280;36547;50.514;30.840;2023-05-11T00:28:38;100934.51;;;6.05;58.56
50590;BME280;36547;50.514;30.840;2023-05-11T00:29:40;100941.58;;;6.03;58.61
50590;BME280;36547;50.514;30.840;2023-05-11T00:30:43;100934.56;;;6.02;58.62
50590;BME280;36547;50.514;30.840;2023-05-11T00:31:45;100939.89;;;5.99;58.81
50590;BME280;36547;50.514;30.840;2023-05-11T00:32:49;100940.82;;;5.96;58.94
50590;BME280;36547;50.514;30.840;2023-05-11T00:33:52;100934.73;;;5.93;58.86
50590;BME280;36547;50.514;30.840;2023-05-11T00:34:55;100932.94;;;5.95;58.73
50590;BME280;36547;50.514;30.840;2023-05-11T00:35:57;100940.97;;;5.90;58.94
50590;BME280;36547;50.514;30.840;2023-05-11T00:37:01;100943.54;;;5.92;59.00
50590;BME280;36547;50.514;30.840;2023-05-11T00:38:03;100941.84;;;5.91;58.98
50590;BME280;36547;50.514;30.840;2023-05-11T00:39:05;100935.70;;;5.87;58.84
50590;BME280;36547;50.514;30.840;2023-05-11T00:40:08;100934.84;;;5.88;58.86
50590;BME280;36547;50.514;30.840;2023-05-11T00:41:10;100934.84;;;5.87;59.12
50590;BME280;36547;50.514;30.840;2023-05-11T00:42:13;100937.48;;;5.87;59.13
50590;BME280;36547;50.514;30.840;2023-05-11T00:43:15;100941.94;;;5.83;59.24
50590;BME280;36547;50.514;30.840;2023-05-11T00:44:18;100939.22;;;5.88;59.31
50590;BME280;36547;50.514;30.840;2023-05-11T00:45:21;100939.33;;;5.82;59.65
50590;BME280;36547;50.514;30.840;2023-05-11T00:46:23;100936.69;;;5.82;59.65
50590;BME280;36547;50.514;30.840;2023-05-11T00:47:26;100938.45;;;5.81;59.59
50590;BME280;36547;50.514;30.840;2023-05-11T00:48:29;100935.84;;;5.80;59.78
50590;BME280;36547;50.514;30.840;2023-05-11T00:49:31;100935.09;;;5.75;59.69
50590;BME280;36547;50.514;30.840;2023-05-11T00:50:34;100933.31;;;5.75;59.93
50590;BME280;36547;50.514;30.840;2023-05-11T00:51:37;100932.47;;;5.73;60.01
50590;BME280;36547;50.514;30.840;2023-05-11T00:52:40;100929.91;;;5.68;60.23
50590;BME280;36547;50.514;30.840;2023-05-11T00:53:43;100938.70;;;5.69;60.25
50590;BME280;36547;50.514;30.840;2023-05-11T00:54:46;100936.98;;;5.66;60.12
50590;BME280;36547;50.514;30.840;2023-05-11T00:55:49;100938.86;;;5.61;60.32
50590;BME280;36547;50.514;30.840;2023-05-11T00:56:51;100935.33;;;5.62;60.39
50590;BME280;36547;50.514;30.840;2023-05-11T00:57:54;100940.59;;;5.62;60.23
50590;BME280;36547;50.514;30.840;2023-05-11T00:58:57;100931.89;;;5.57;60.34
50590;BME280;36547;50.514;30.840;2023-05-11T01:00:01;100941.52;;;5.60;60.53
50590;BME280;36547;50.514;30.840;2023-05-11T01:01:04;100938.91;;;5.58;60.49
50590;BME280;36547;50.514;30.840;2023-05-11T01:02:07;100936.30;;;5.57;60.44
50590;BME280;36547;50.514;30.840;2023-05-11T01:03:09;100933.64;;;5.58;60.41
50590;BME280;36547;50.514;30.840;2023-05-11T01:04:12;100943.23;;;5.62;60.12
50590;BME280;36547;50.514;30.840;2023-05-11T01:05:15;100948.55;;;5.59;60.13
50590;BME280;36547;50.514;30.840;2023-05-11T01:06:26;100944.18;;;5.58;60.16
50590;BME280;36547;50.514;30.840;2023-05-11T01:15:23;100938.11;;;5.53;60.74
50590;BME280;36547;50.514;30.840;2023-05-11T01:16:28;100945.47;;;5.34;61.05
50590;BME280;36547;50.514;30.840;2023-05-11T01:20:12;100945.10;;;5.56;60.80
50590;BME280;36547;50.514;30.840;2023-05-11T01:21:16;100950.72;;;5.36;61.35
50590;BME280;36547;50.514;30.840;2023-05-11T01:22:30;100946.25;;;5.41;61.12
50590;BME280;36547;50.514;30.840;2023-05-11T01:26:34;100944.23;;;5.55;60.56
50590;BME280;36547;50.514;30.840;2023-05-11T01:31:51;100945.97;;;5.56;60.71
50590;BME280;36547;50.514;30.840;2023-05-11T01:32:57;100947.19;;;5.37;60.53
50590;BME280;36547;50.514;30.840;2023-05-11T01:34:03;100954.22;;;5.37;60.10
50590;BME280;36547;50.514;30.840;2023-05-11T01:36:24;100944.30;;;5.51;60.24
50590;BME280;36547;50.514;30.840;2023-05-11T01:37:30;100953.44;;;5.33;60.25
50590;BME280;36547;50.514;30.840;2023-05-11T01:38:36;100955.97;;;5.38;60.21
50590;BME280;36547;50.514;30.840;2023-05-11T01:39:47;100955.98;;;5.36;60.15
50590;BME280;36547;50.514;30.840;2023-05-11T01:40:51;100953.35;;;5.36;60.02
50590;BME280;36547;50.514;30.840;2023-05-11T01:41:55;100952.39;;;5.42;59.73
50590;BME280;36547;50.514;30.840;2023-05-11T01:44:12;100947.71;;;5.57;59.84
50590;BME280;36547;50.514;30.840;2023-05-11T01:45:16;100951.52;;;5.41;60.29
50590;BME280;36547;50.514;30.840;2023-05-11T01:46:22;100956.74;;;5.44;60.42
50590;BME280;36547;50.514;30.840;2023-05-11T01:47:27;100947.05;;;5.46;60.35
50590;BME280;36547;50.514;30.840;2023-05-11T01:48:33;100951.34;;;5.50;60.31
50590;BME280;36547;50.514;30.840;2023-05-11T01:49:37;100948.70;;;5.50;60.08
50590;BME280;36547;50.514;30.840;2023-05-11T01:50:42;100951.34;;;5.50;59.82
50590;BME280;36547;50.514;30.840;2023-05-11T01:51:48;100944.33;;;5.49;59.60
50590;BME280;36547;50.514;30.840;2023-05-11T01:52:56;100938.80;;;5.63;59.29
50590;BME280;36547;50.514;30.840;2023-05-11T01:53:59;100949.60;;;5.49;59.37
50590;BME280;36547;50.514;30.840;2023-05-11T01:55:05;100941.75;;;5.48;59.37
50590;BME280;36547;50.514;30.840;2023-05-11T01:56:11;100939.95;;;5.48;59.53
50590;BME280;36547;50.514;30.840;2023-05-11T01:57:16;100938.16;;;5.50;59.82
50590;BME280;36547;50.514;30.840;2023-05-11T01:58:20;100944.33;;;5.49;59.82
50590;BME280;36547;50.514;30.840;2023-05-11T01:59:25;100948.78;;;5.47;59.90
50590;BME280;36547;50.514;30.840;2023-05-11T02:00:30;100942.64;;;5.47;59.60
50590;BME280;36547;50.514;30.840;2023-05-11T02:01:34;100940.01;;;5.47;59.53
50590;BME280;36547;50.514;30.840;2023-05-11T02:02:36;100948.81;;;5.46;59.36
50590;BME280;36547;50.514;30.840;2023-05-11T02:03:40;100938.19;;;5.49;59.51
50590;BME280;36547;50.514;30.840;2023-05-11T02:04:44;100942.59;;;5.48;59.56
50590;BME280;36547;50.514;30.840;2023-05-11T02:05:49;100947.94;;;5.45;59.63
50590;BME280;36547;50.514;30.840;2023-05-11T02:06:55;100946.16;;;5.47;59.47
50590;BME280;36547;50.514;30.840;2023-05-11T02:07:59;100945.33;;;5.44;59.50
50590;BME280;36547;50.514;30.840;2023-05-11T02:09:04;100940.06;;;5.44;59.57
50590;BME280;36547;50.514;30.840;2023-05-11T02:10:09;100940.98;;;5.41;59.29
50590;BME280;36547;50.514;30.840;2023-05-11T02:11:14;100941.84;;;5.42;59.44
50590;BME280;36547;50.514;30.840;2023-05-11T02:12:18;100951.52;;;5.41;59.23
50590;BME280;36547;50.514;30.840;2023-05-11T02:13:22;100945.37;;;5.41;59.21
50590;BME280;36547;50.514;30.840;2023-05-11T02:14:27;100941.89;;;5.39;59.18
50590;BME280;36547;50.514;30.840;2023-05-11T02:15:31;100951.56;;;5.38;59.22
50590;BME280;36547;50.514;30.840;2023-05-11T02:16:35;100953.31;;;5.39;59.41
50590;BME280;36547;50.514;30.840;2023-05-11T02:17:39;100949.78;;;5.40;59.72
50590;BME280;36547;50.514;30.840;2023-05-11T02:18:42;100956.84;;;5.38;59.78
50590;BME280;36547;50.514;30.840;2023-05-11T02:19:46;100956.84;;;5.38;59.99
50590;BME280;36547;50.514;30.840;2023-05-11T02:20:49;100957.75;;;5.36;60.05
50590;BME280;36547;50.514;30.840;2023-05-11T02:21:53;100963.85;;;5.39;60.08
50590;BME280;36547;50.514;30.840;2023-05-11T02:22:57;100960.39;;;5.36;59.98
50590;BME280;36547;50.514;30.840;2023-05-11T02:24:03;100960.49;;;5.31;60.07
50590;BME280;36547;50.514;30.840;2023-05-11T02:25:07;100956.14;;;5.28;59.65
50590;BME280;36547;50.514;30.840;2023-05-11T02:26:11;100952.63;;;5.28;59.90
50590;BME280;36547;50.514;30.840;2023-05-11T02:27:16;100955.22;;;5.31;60.03
50590;BME280;36547;50.514;30.840;2023-05-11T02:28:18;100959.63;;;5.30;60.15
50590;BME280;36547;50.514;30.840;2023-05-11T02:29:21;100955.22;;;5.31;60.12
50590;BME280;36547;50.514;30.840;2023-05-11T02:30:26;100953.48;;;5.30;60.43
50590;BME280;36547;50.514;30.840;2023-05-11T02:31:33;100955.31;;;5.25;60.70
50590;BME280;36547;50.514;30.840;2023-05-11T02:32:38;100966.75;;;5.24;60.76
50590;BME280;36547;50.514;30.840;2023-05-11T02:33:44;100960.62;;;5.22;60.71
50590;BME280;36547;50.514;30.840;2023-05-11T02:36:19;100964.77;;;5.37;60.98
50590;BME280;36547;50.514;30.840;2023-05-11T02:37:23;100963.36;;;5.17;60.62
50590;BME280;36547;50.514;30.840;2023-05-11T02:38:32;100969.52;;;5.16;61.12
50590;BME280;36547;50.514;30.840;2023-05-11T02:39:38;100964.23;;;5.18;61.19
50590;BME280;36547;50.514;30.840;2023-05-11T02:40:48;100962.49;;;5.17;60.90
50590;BME280;36547;50.514;30.840;2023-05-11T02:41:55;100964.28;;;5.15;61.49
50590;BME280;36547;50.514;30.840;2023-05-11T02:43:11;100961.66;;;5.13;61.41
50590;BME280;36547;50.514;30.840;2023-05-11T02:44:16;100966.94;;;5.13;61.32
50590;BME280;36547;50.514;30.840;2023-05-11T02:45:21;100967.77;;;5.17;61.55
50590;BME280;36547;50.514;30.840;2023-05-11T02:46:27;100969.50;;;5.18;61.60
50590;BME280;36547;50.514;30.840;2023-05-11T02:47:33;100966.89;;;5.16;61.76
50590;BME280;36547;50.514;30.840;2023-05-11T02:48:40;100958.97;;;5.18;61.74
50590;BME280;36547;50.514;30.840;2023-05-11T02:49:44;100963.34;;;5.19;61.68
50590;BME280;36547;50.514;30.840;2023-05-11T02:50:50;100967.77;;;5.17;61.55
50590;BME280;36547;50.514;30.840;2023-05-11T02:51:54;100964.28;;;5.15;61.80
50590;BME280;36547;50.514;30.840;2023-05-11T02:53:00;100971.25;;;5.19;61.23
50590;BME280;36547;50.514;30.840;2023-05-11T02:54:05;100971.19;;;5.20;60.84
50590;BME280;36547;50.514;30.840;2023-05-11T02:55:12;100965.90;;;5.22;60.23
50590;BME280;36547;50.514;30.840;2023-05-11T02:56:17;100960.62;;;5.22;60.10
50590;BME280;36547;50.514;30.840;2023-05-11T02:57:20;100966.72;;;5.25;60.42
50590;BME280;36547;50.514;30.840;2023-05-11T02:58:22;100962.37;;;5.23;60.51
50590;BME280;36547;50.514;30.840;2023-05-11T02:59:26;100965.85;;;5.25;60.73
50590;BME280;36547;50.514;30.840;2023-05-11T03:00:29;100970.19;;;5.29;60.70
50590;BME280;36547;50.514;30.840;2023-05-11T03:01:34;100970.16;;;5.30;60.46
50590;BME280;36547;50.514;30.840;2023-05-11T03:02:36;100971.91;;;5.31;60.27
50590;BME280;36547;50.514;30.840;2023-05-11T03:03:40;100970.14;;;5.32;60.14
50590;BME280;36547;50.514;30.840;2023-05-11T03:04:42;100971.91;;;5.31;60.59
50590;BME280;36547;50.514;30.840;2023-05-11T03:05:45;100968.30;;;5.36;60.88
50590;BME280;36547;50.514;30.840;2023-05-11T03:06:47;100977.07;;;5.36;61.27
50590;BME280;36547;50.514;30.840;2023-05-11T03:07:51;100973.52;;;5.39;61.42
50590;BME280;36547;50.514;30.840;2023-05-11T03:08:54;100972.70;;;5.35;61.70
50590;BME280;36547;50.514;30.840;2023-05-11T03:09:57;100984.94;;;5.39;62.56
50590;BME280;36547;50.514;30.840;2023-05-11T03:11:01;100977.92;;;5.38;62.17
50590;BME280;36547;50.514;30.840;2023-05-11T03:12:04;100983.19;;;5.38;62.27
50590;BME280;36547;50.514;30.840;2023-05-11T03:13:08;100979.70;;;5.36;62.37
50590;BME280;36547;50.514;30.840;2023-05-11T03:14:11;100979.70;;;5.36;62.25
50590;BME280;36547;50.514;30.840;2023-05-11T03:15:14;100979.66;;;5.39;62.42
50590;BME280;36547;50.514;30.840;2023-05-11T03:16:18;100978.75;;;5.42;62.32
50590;BME280;36547;50.514;30.840;2023-05-11T03:17:24;100980.47;;;5.44;62.23
50590;BME280;36547;50.514;30.840;2023-05-11T03:18:28;100979.57;;;5.45;62.62
50590;BME280;36547;50.514;30.840;2023-05-11T03:19:32;100980.42;;;5.47;63.30
50590;BME280;36547;50.514;30.840;2023-05-11T03:20:37;100989.12;;;5.51;63.85
50590;BME280;36547;50.514;30.840;2023-05-11T03:21:41;100989.06;;;5.54;63.84
50590;BME280;36547;50.514;30.840;2023-05-11T03:22:44;100984.66;;;5.54;64.06
50590;BME280;36547;50.514;30.840;2023-05-11T03:23:48;100987.25;;;5.57;63.47
50590;BME280;36547;50.514;30.840;2023-05-11T03:24:51;100985.44;;;5.61;62.95
50590;BME280;36547;50.514;30.840;2023-05-11T03:25:54;100979.22;;;5.63;62.57
50590;BME280;36547;50.514;30.840;2023-05-11T03:26:58;100994.98;;;5.66;62.43
50590;BME280;36547;50.514;30.840;2023-05-11T03:28:03;100989.66;;;5.69;61.76
50590;BME280;36547;50.514;30.840;2023-05-11T03:29:06;100987.88;;;5.72;61.60
50590;BME280;36547;50.514;30.840;2023-05-11T03:30:12;100994.84;;;5.76;62.46
50590;BME280;36547;50.514;30.840;2023-05-11T03:31:18;100992.09;;;5.80;63.05
50590;BME280;36547;50.514;30.840;2023-05-11T03:32:21;100987.61;;;5.85;63.24
50590;BME280;36547;50.514;30.840;2023-05-11T03:33:23;100996.38;;;5.89;61.76
50590;BME280;36547;50.514;30.840;2023-05-11T03:34:26;100990.09;;;5.94;61.91
50590;BME280;36547;50.514;30.840;2023-05-11T03:35:30;100997.06;;;5.98;62.17
50590;BME280;36547;50.514;30.840;2023-05-11T03:36:35;101003.16;;;6.02;59.30
50590;BME280;36547;50.514;30.840;2023-05-11T03:37:40;100996.00;;;6.07;59.67
50590;BME280;36547;50.514;30.840;2023-05-11T03:38:45;101002.06;;;6.12;61.15
50590;BME280;36547;50.514;30.840;2023-05-11T03:39:54;100999.37;;;6.15;60.17
50590;BME280;36547;50.514;30.840;2023-05-11T03:40:57;101009.78;;;6.21;60.72
50590;BME280;36547;50.514;30.840;2023-05-11T03:42:00;101002.66;;;6.26;61.52
50590;BME280;36547;50.514;30.840;2023-05-11T03:43:06;100992.94;;;6.28;62.18
50590;BME280;36547;50.514;30.840;2023-05-11T03:44:10;101000.75;;;6.34;62.12
50590;BME280;36547;50.514;30.840;2023-05-11T03:45:16;101007.68;;;6.38;60.77
50590;BME280;36547;50.514;30.840;2023-05-11T03:46:21;100997.94;;;6.42;59.72
50590;BME280;36547;50.514;30.840;2023-05-11T03:47:27;101004.02;;;6.46;57.89
50590;BME280;36547;50.514;30.840;2023-05-11T03:48:31;101003.97;;;6.49;56.59
50590;BME280;36547;50.514;30.840;2023-05-11T03:49:36;101004.72;;;6.54;57.35
50590;BME280;36547;50.514;30.840;2023-05-11T03:50:40;101003.76;;;6.58;56.73
50590;BME280;36547;50.514;30.840;2023-05-11T03:51:43;101008.05;;;6.63;56.47
50590;BME280;36547;50.514;30.840;2023-05-11T03:52:47;101009.66;;;6.69;56.57
50590;BME280;36547;50.514;30.840;2023-05-11T03:53:49;101008.70;;;6.73;56.19
50590;BME280;36547;50.514;30.840;2023-05-11T03:54:52;101004.27;;;6.75;55.55
50590;BME280;36547;50.514;30.840;2023-05-11T03:55:54;101015.57;;;6.80;55.24
50590;BME280;36547;50.514;30.840;2023-05-11T03:56:56;101013.73;;;6.84;54.59
50590;BME280;36547;50.514;30.840;2023-05-11T03:57:59;101009.27;;;6.87;54.22
50590;BME280;36547;50.514;30.840;2023-05-11T03:59:04;101014.45;;;6.92;54.33
50590;BME280;36547;50.514;30.840;2023-05-11T04:00:09;101016.97;;;6.96;54.30
50590;BME280;36547;50.514;30.840;2023-05-11T04:01:18;101014.27;;;6.99;54.18
50590;BME280;36547;50.514;30.840;2023-05-11T04:02:21;101020.31;;;7.04;54.27
50590;BME280;36547;50.514;30.840;2023-05-11T04:03:24;101010.52;;;7.08;54.69
50590;BME280;36547;50.514;30.840;2023-05-11T04:04:28;101022.77;;;7.12;54.59
50590;BME280;36547;50.514;30.840;2023-05-11T04:05:32;101018.28;;;7.16;54.71
50590;BME280;36547;50.514;30.840;2023-05-11T04:06:36;101018.22;;;7.19;54.91
50590;BME280;36547;50.514;30.840;2023-05-11T04:07:46;101026.88;;;7.24;55.14
50590;BME280;36547;50.514;30.840;2023-05-11T04:08:49;101025.95;;;7.26;54.43
50590;BME280;36547;50.514;30.840;2023-05-11T04:09:51;101016.17;;;7.30;55.00
50590;BME280;36547;50.514;30.840;2023-05-11T04:10:54;101014.38;;;7.32;54.49
50590;BME280;36547;50.514;30.840;2023-05-11T04:11:56;101023.10;;;7.35;54.01
50590;BME280;36547;50.514;30.840;2023-05-11T04:12:59;101020.39;;;7.37;53.71
50590;BME280;36547;50.514;30.840;2023-05-11T04:14:01;101022.97;;;7.40;53.42
50590;BME280;36547;50.514;30.840;2023-05-11T04:15:04;101022.90;;;7.43;53.85
50590;BME280;36547;50.514;30.840;2023-05-11T04:16:07;101019.34;;;7.44;53.72
50590;BME280;36547;50.514;30.840;2023-05-11T04:17:09;101021.95;;;7.45;53.70
50590;BME280;36547;50.514;30.840;2023-05-11T04:18:11;101022.83;;;7.46;53.90
50590;BME280;36547;50.514;30.840;2023-05-11T04:19:14;101026.27;;;7.50;53.94
50590;BME280;36547;50.514;30.840;2023-05-11T04:20:16;101022.66;;;7.52;53.54
50590;BME280;36547;50.514;30.840;2023-05-11T04:21:19;101024.33;;;7.56;53.82
50590;BME280;36547;50.514;30.840;2023-05-11T04:22:22;101026.90;;;7.59;53.73
50590;BME280;36547;50.514;30.840;2023-05-11T04:23:24;101027.73;;;7.61;54.35
50590;BME280;36547;50.514;30.840;2023-05-11T04:24:26;101029.44;;;7.64;54.38
50590;BME280;36547;50.514;30.840;2023-05-11T04:25:29;101026.69;;;7.67;54.19
50590;BME280;36547;50.514;30.840;2023-05-11T04:26:31;101028.42;;;7.68;53.85
50590;BME280;36547;50.514;30.840;2023-05-11T04:27:34;101032.77;;;7.70;53.48
50590;BME280;36547;50.514;30.840;2023-05-11T04:28:38;101041.55;;;7.72;53.70
50590;BME280;36547;50.514;30.840;2023-05-11T04:29:41;101037.05;;;7.76;53.85
50590;BME280;36547;50.514;30.840;2023-05-11T04:30:43;101036.11;;;7.78;53.80
50590;BME280;36547;50.514;30.840;2023-05-11T04:31:45;101039.55;;;7.80;53.71
50590;BME280;36547;50.514;30.840;2023-05-11T04:32:48;101041.22;;;7.85;54.05
50590;BME280;36547;50.514;30.840;2023-05-11T04:33:50;101036.77;;;7.87;53.87
50590;BME280;36547;50.514;30.840;2023-05-11T04:34:52;101035.78;;;7.91;53.53
50590;BME280;36547;50.514;30.840;2023-05-11T04:35:57;101042.81;;;7.92;53.96
50590;BME280;36547;50.514;30.840;2023-05-11T04:36:59;101032.12;;;7.95;54.08
50590;BME280;36547;50.514;30.840;2023-05-11T04:38:03;101030.30;;;7.97;54.10
50590;BME280;36547;50.514;30.840;2023-05-11T04:39:07;101033.78;;;7.99;54.12
50590;BME280;36547;50.514;30.840;2023-05-11T04:40:12;101043.39;;;8.03;53.93
50590;BME280;36547;50.514;30.840;2023-05-11T04:41:15;101039.83;;;8.04;54.05
50590;BME280;36547;50.514;30.840;2023-05-11T04:42:19;101036.24;;;8.06;54.04
50590;BME280;36547;50.514;30.840;2023-05-11T04:43:23;101037.88;;;8.10;54.53
50590;BME280;36547;50.514;30.840;2023-05-11T04:44:26;101036.92;;;8.13;54.28
50590;BME280;36547;50.514;30.840;2023-05-11T04:45:28;101037.75;;;8.15;54.02
50590;BME280;36547;50.514;30.840;2023-05-11T04:46:31;101039.45;;;8.18;54.28
50590;BME280;36547;50.514;30.840;2023-05-11T04:47:34;101042.89;;;8.21;54.02
50590;BME280;36547;50.514;30.840;2023-05-11T04:48:36;101038.40;;;8.23;53.88
50590;BME280;36547;50.514;30.840;2023-05-11T04:49:39;101040.92;;;8.28;54.01
50590;BME280;36547;50.514;30.840;2023-05-11T04:50:42;101033.81;;;8.30;53.79
50590;BME280;36547;50.514;30.840;2023-05-11T04:51:45;101034.67;;;8.32;53.39
50590;BME280;36547;50.514;30.840;2023-05-11T04:52:47;101029.30;;;8.35;54.15
50590;BME280;36547;50.514;30.840;2023-05-11T04:53:51;101036.27;;;8.37;53.79
50590;BME280;36547;50.514;30.840;2023-05-11T04:54:53;101030.88;;;8.40;54.07
50590;BME280;36547;50.514;30.840;2023-05-11T04:55:56;101029.94;;;8.43;53.97
50590;BME280;36547;50.514;30.840;2023-05-11T04:56:59;101025.47;;;8.45;54.16
50590;BME280;36547;50.514;30.840;2023-05-11T04:58:01;101033.33;;;8.48;54.00
50590;BME280;36547;50.514;30.840;2023-05-11T04:59:04;101028.78;;;8.51;54.05
50590;BME280;36547;50.514;30.840;2023-05-11T05:00:08;101029.61;;;8.54;53.85
50590;BME280;36547;50.514;30.840;2023-05-11T05:01:10;101035.73;;;8.56;53.35
50590;BME280;36547;50.514;30.840;2023-05-11T05:02:14;101038.30;;;8.59;53.59
50590;BME280;36547;50.514;30.840;2023-05-11T05:03:16;101035.62;;;8.60;53.50
50590;BME280;36547;50.514;30.840;2023-05-11T05:04:20;101027.58;;;8.63;54.35
50590;BME280;36547;50.514;30.840;2023-05-11T05:05:23;101037.20;;;8.66;54.37
50590;BME280;36547;50.514;30.840;2023-05-11T05:06:25;101032.72;;;8.68;54.60
50590;BME280;36547;50.514;30.840;2023-05-11T05:07:28;101029.98;;;8.71;54.32
50590;BME280;36547;50.514;30.840;2023-05-11T05:08:30;101019.30;;;8.74;54.56
50590;BME280;36547;50.514;30.840;2023-05-11T05:09:33;101036.86;;;8.78;54.72
50590;BME280;36547;50.514;30.840;2023-05-11T05:10:36;101034.09;;;8.81;54.16
50590;BME280;36547;50.514;30.840;2023-05-11T05:11:38;101032.22;;;8.84;53.96
50590;BME280;36547;50.514;30.840;2023-05-11T05:12:41;101031.27;;;8.87;53.71
50590;BME280;36547;50.514;30.840;2023-05-11T05:13:43;101033.83;;;8.90;52.96
50590;BME280;36547;50.514;30.840;2023-05-11T05:14:45;101027.57;;;8.93;52.30
50590;BME280;36547;50.514;30.840;2023-05-11T05:15:49;101031.88;;;8.95;52.35
50590;BME280;36547;50.514;30.840;2023-05-11T05:16:51;101032.66;;;8.99;52.86
50590;BME280;36547;50.514;30.840;2023-05-11T05:17:54;101033.44;;;9.02;53.35
50590;BME280;36547;50.514;30.840;2023-05-11T05:18:56;101029.84;;;9.05;53.23
50590;BME280;36547;50.514;30.840;2023-05-11T05:19:59;101034.18;;;9.07;53.21
50590;BME280;36547;50.514;30.840;2023-05-11T05:21:02;101041.09;;;9.11;52.84
50590;BME280;36547;50.514;30.840;2023-05-11T05:22:04;101040.09;;;9.15;53.15
50590;BME280;36547;50.514;30.840;2023-05-11T05:23:06;101038.22;;;9.19;53.38
50590;BME280;36547;50.514;30.840;2023-05-11T05:24:08;101033.70;;;9.23;53.74
50590;BME280;36547;50.514;30.840;2023-05-11T05:25:11;101036.17;;;9.27;52.70
50590;BME280;36547;50.514;30.840;2023-05-11T05:26:13;101039.56;;;9.32;52.88
50590;BME280;36547;50.514;30.840;2023-05-11T05:27:16;101034.16;;;9.35;52.84
50590;BME280;36547;50.514;30.840;2023-05-11T05:28:19;101040.21;;;9.39;52.04
50590;BME280;36547;50.514;30.840;2023-05-11T05:29:22;101037.47;;;9.42;52.17
50590;BME280;36547;50.514;30.840;2023-05-11T05:30:24;101033.80;;;9.46;52.02
50590;BME280;36547;50.514;30.840;2023-05-11T05:31:26;101036.36;;;9.49;51.62
50590;BME280;36547;50.514;30.840;2023-05-11T05:32:29;101032.66;;;9.53;51.11
50590;BME280;36547;50.514;30.840;2023-05-11T05:33:32;101038.70;;;9.58;51.17
50590;BME280;36547;50.514;30.840;2023-05-11T05:34:36;101037.69;;;9.62;49.50
50590;BME280;36547;50.514;30.840;2023-05-11T05:35:39;101034.02;;;9.66;49.69
50590;BME280;36547;50.514;30.840;2023-05-11T05:36:41;101036.50;;;9.71;50.21
50590;BME280;36547;50.514;30.840;2023-05-11T05:37:45;101044.31;;;9.75;50.57
50590;BME280;36547;50.514;30.840;2023-05-11T05:38:51;101033.55;;;9.80;51.42
50590;BME280;36547;50.514;30.840;2023-05-11T05:39:56;101036.94;;;9.83;49.74
50590;BME280;36547;50.514;30.840;2023-05-11T05:41:00;101034.14;;;9.88;50.34
50590;BME280;36547;50.514;30.840;2023-05-11T05:42:07;101035.73;;;9.93;50.61
50590;BME280;36547;50.514;30.840;2023-05-11T05:43:13;101042.64;;;9.98;49.88
50590;BME280;36547;50.514;30.840;2023-05-11T05:44:18;101035.39;;;10.03;49.75
50590;BME280;36547;50.514;30.840;2023-05-11T05:45:23;101039.68;;;10.07;49.45
50590;BME280;36547;50.514;30.840;2023-05-11T05:46:26;101034.27;;;10.10;48.34
50590;BME280;36547;50.514;30.840;2023-05-11T05:47:29;101034.13;;;10.13;48.04
50590;BME280;36547;50.514;30.840;2023-05-11T05:48:33;101034.84;;;10.18;47.64
50590;BME280;36547;50.514;30.840;2023-05-11T05:49:40;101033.86;;;10.22;47.97
50590;BME280;36547;50.514;30.840;2023-05-11T05:50:47;101035.45;;;10.26;46.97
50590;BME280;36547;50.514;30.840;2023-05-11T05:51:51;101037.09;;;10.30;47.10
50590;BME280;36547;50.514;30.840;2023-05-11T05:52:55;101035.14;;;10.35;46.78
50590;BME280;36547;50.514;30.840;2023-05-11T05:54:02;101039.39;;;10.39;46.99
50590;BME280;36547;50.514;30.840;2023-05-11T05:55:09;101030.39;;;10.43;47.14